Time;durP1;ratioP1;P1;durP2;ratioP2;P2;SDS_P1;SDS_P2;PMS_P1;PMS_P2;Temp;Humidity;BMP_temperature;BMP_pressure;BME280_temperature;BME280_humidity;BME280_pressure;Samples;Min_cycle;Max_cycle;Signal;HPM_P1;HPM_P2
2021/06/15 00:01:15;;;;;;;3.27;2.63;;;21.40;99.90;;;;;;4972233;28;20554;-81
2021/06/15 00:03:44;;;;;;;3.80;3.10;;;21.40;99.90;;;;;;4981630;28;20534;-82
2021/06/15 00:06:12;;;;;;;3.10;2.80;;;21.40;99.90;;;;;;4988078;28;20451;-80
2021/06/15 00:08:40;;;;;;;3.13;2.57;;;21.40;99.90;;;;;;4969705;28;20445;-81
2021/06/15 00:11:10;;;;;;;2.87;2.63;;;21.40;99.90;;;;;;4971917;28;20498;-81
2021/06/15 00:13:38;;;;;;;2.80;2.60;;;21.40;99.90;;;;;;4964036;28;20554;-81
2021/06/15 00:16:06;;;;;;;3.80;2.47;;;21.40;99.90;;;;;;4965062;28;20447;-78
2021/06/15 00:18:35;;;;;;;4.40;2.77;;;21.30;99.90;;;;;;4956837;28;20434;-80
2021/06/15 00:21:03;;;;;;;3.13;2.83;;;21.30;99.90;;;;;;4974407;28;20459;-82
2021/06/15 00:23:32;;;;;;;3.00;2.70;;;21.20;99.90;;;;;;4972651;28;20466;-83
2021/06/15 00:26:00;;;;;;;3.10;2.77;;;21.20;99.90;;;;;;4969174;28;20459;-80
2021/06/15 00:28:29;;;;;;;3.27;3.03;;;21.20;99.90;;;;;;4971508;28;20451;-81
2021/06/15 00:30:58;;;;;;;2.70;2.50;;;21.20;99.90;;;;;;4970360;28;20494;-83
2021/06/15 00:33:26;;;;;;;3.30;2.53;;;21.10;99.90;;;;;;4984673;28;20480;-84
2021/06/15 00:35:54;;;;;;;2.60;2.40;;;21.10;99.90;;;;;;4994348;28;20455;-82
2021/06/15 00:38:22;;;;;;;5.00;3.10;;;21.00;99.90;;;;;;4971508;28;20450;-84
2021/06/15 00:40:50;;;;;;;3.13;2.50;;;21.10;99.90;;;;;;4972550;28;21032;-80
2021/06/15 00:43:18;;;;;;;2.53;2.20;;;21.00;99.90;;;;;;4966279;28;20931;-81
2021/06/15 00:45:48;;;;;;;3.80;2.73;;;21.00;99.90;;;;;;4980193;28;20504;-79
2021/06/15 00:48:27;;;;;;;3.40;2.70;;;21.00;99.90;;;;;;4980655;28;20454;-83
2021/06/15 00:50:55;;;;;;;4.00;2.77;;;20.90;99.90;;;;;;4968562;28;20481;-82
2021/06/15 00:53:23;;;;;;;2.53;2.33;;;20.90;99.90;;;;;;4980892;28;20490;-82
2021/06/15 00:55:53;;;;;;;2.60;2.50;;;20.90;99.90;;;;;;4970776;28;20451;-80
2021/06/15 00:58:22;;;;;;;3.67;3.00;;;20.90;99.90;;;;;;4976784;28;20475;-81
2021/06/15 01:00:53;;;;;;;2.47;2.27;;;20.80;99.90;;;;;;4966007;28;20974;-79
2021/06/15 01:03:23;;;;;;;3.00;2.80;;;20.80;99.90;;;;;;4974725;28;20462;-80
2021/06/15 01:05:51;;;;;;;3.27;2.57;;;20.80;99.90;;;;;;4963566;28;20940;-82
2021/06/15 01:08:34;;;;;;;3.50;2.33;;;20.80;99.90;;;;;;4980446;28;20542;-80
2021/06/15 01:11:08;;;;;;;3.03;2.30;;;20.70;99.90;;;;;;4974091;28;20479;-78
2021/06/15 01:13:46;;;;;;;2.73;2.40;;;20.70;99.90;;;;;;4970955;28;20880;-80
2021/06/15 01:16:23;;;;;;;4.37;2.53;;;20.70;99.90;;;;;;4966100;28;20451;-81
2021/06/15 01:18:57;;;;;;;3.70;2.83;;;20.70;99.90;;;;;;4974143;28;20553;-83
2021/06/15 01:21:27;;;;;;;3.07;2.87;;;20.60;99.90;;;;;;4956949;28;20459;-80
2021/06/15 01:24:12;;;;;;;2.97;2.77;;;20.60;99.90;;;;;;4961200;28;20439;-82
2021/06/15 01:27:21;;;;;;;2.70;2.50;;;20.60;99.90;;;;;;4970099;28;20461;-82
2021/06/15 01:29:53;;;;;;;5.20;2.90;;;20.60;99.90;;;;;;4963478;28;20512;-81
2021/06/15 01:32:25;;;;;;;2.70;2.50;;;20.50;99.90;;;;;;4982783;28;20483;-83
2021/06/15 01:34:55;;;;;;;5.43;3.33;;;20.50;99.90;;;;;;4969300;28;20458;-78
2021/06/15 01:37:28;;;;;;;3.13;2.33;;;20.50;99.90;;;;;;4960381;28;20956;-81
2021/06/15 01:39:59;;;;;;;2.50;2.30;;;20.50;99.90;;;;;;4976649;28;20469;-83
2021/06/15 01:42:31;;;;;;;4.20;3.30;;;20.50;99.90;;;;;;4985740;28;20513;-81
2021/06/15 01:45:06;;;;;;;11.40;2.83;;;20.40;99.90;;;;;;4978528;28;20463;-82
2021/06/15 01:47:37;;;;;;;3.03;2.57;;;20.40;99.90;;;;;;4974560;28;20813;-80
2021/06/15 01:50:08;;;;;;;2.73;2.53;;;20.40;99.90;;;;;;4983190;28;20512;-80
2021/06/15 01:52:39;;;;;;;2.90;2.70;;;20.30;99.90;;;;;;4966763;28;20499;-83
2021/06/15 01:55:09;;;;;;;2.80;2.60;;;20.30;99.90;;;;;;4976291;28;20482;-82
2021/06/15 01:57:37;;;;;;;3.33;2.60;;;20.30;99.90;;;;;;4976242;28;20463;-81
2021/06/15 02:00:12;;;;;;;3.27;3.00;;;20.30;99.90;;;;;;4974542;28;20475;-79
2021/06/15 02:02:43;;;;;;;2.80;2.60;;;20.20;99.90;;;;;;4973065;28;20447;-81
2021/06/15 02:05:13;;;;;;;3.23;2.83;;;20.20;99.90;;;;;;4975074;28;20451;-82
2021/06/15 02:07:46;;;;;;;2.57;2.37;;;20.20;99.90;;;;;;4979640;28;20796;-80
2021/06/15 02:10:18;;;;;;;3.63;2.90;;;20.10;99.90;;;;;;4974725;28;20540;-82
2021/06/15 02:12:49;;;;;;;12.00;3.03;;;20.10;99.90;;;;;;4974862;28;20490;-80
2021/06/15 02:15:19;;;;;;;3.47;2.90;;;20.10;99.90;;;;;;4963663;28;20448;-80
2021/06/15 02:17:49;;;;;;;2.77;2.50;;;20.10;99.90;;;;;;4974603;28;20439;-81
2021/06/15 02:20:19;;;;;;;3.13;2.80;;;20.10;99.90;;;;;;4955732;29;20978;-80
2021/06/15 02:22:50;;;;;;;3.37;3.07;;;20.10;99.90;;;;;;4966201;28;20449;-81
2021/06/15 02:25:22;;;;;;;4.97;2.30;;;20.10;99.90;;;;;;4994286;28;20822;-80
2021/06/15 02:27:50;;;;;;;6.63;2.53;;;20.10;99.90;;;;;;4988874;28;20452;-81
2021/06/15 02:30:21;;;;;;;4.17;3.47;;;20.10;99.90;;;;;;4973700;28;20517;-80
2021/06/15 02:32:51;;;;;;;2.63;2.43;;;20.10;99.90;;;;;;4974883;28;20463;-81
2021/06/15 02:35:23;;;;;;;3.00;2.73;;;20.00;99.90;;;;;;4974719;28;20454;-80
2021/06/15 02:37:55;;;;;;;3.10;2.47;;;20.00;99.90;;;;;;4970785;28;20787;-81
2021/06/15 02:40:26;;;;;;;3.23;2.73;;;19.90;99.90;;;;;;4965248;28;20471;-81
2021/06/15 02:42:56;;;;;;;2.30;2.20;;;19.90;99.90;;;;;;4981572;28;20442;-81
2021/06/15 02:45:28;;;;;;;3.40;2.80;;;19.80;99.90;;;;;;4981806;28;20706;-81
2021/06/15 02:48:00;;;;;;;3.30;2.63;;;19.70;99.90;;;;;;4975593;28;20915;-81
2021/06/15 02:50:30;;;;;;;4.40;2.30;;;19.70;99.90;;;;;;4973765;28;20478;-79
2021/06/15 02:53:04;;;;;;;3.40;3.10;;;19.80;99.90;;;;;;4973102;28;20534;-83
2021/06/15 02:55:36;;;;;;;4.00;3.00;;;19.90;99.90;;;;;;4975454;28;20497;-82
2021/06/15 02:58:05;;;;;;;2.80;2.60;;;19.80;99.90;;;;;;4975104;28;20451;-82
2021/06/15 03:00:35;;;;;;;4.27;3.23;;;19.90;99.90;;;;;;4972511;28;20494;-80
2021/06/15 03:03:06;;;;;;;3.07;2.87;;;19.90;99.90;;;;;;4974322;28;20447;-81
2021/06/15 03:05:35;;;;;;;3.17;2.97;;;19.90;99.90;;;;;;4978195;28;20546;-81
2021/06/15 03:08:03;;;;;;;2.97;2.30;;;19.80;99.90;;;;;;4972555;28;20443;-81
2021/06/15 03:10:32;;;;;;;3.90;3.30;;;19.80;99.90;;;;;;4973676;28;21022;-81
2021/06/15 03:13:05;;;;;;;3.37;2.60;;;19.80;99.90;;;;;;4965506;28;20538;-81
2021/06/15 03:15:43;;;;;;;4.00;3.10;;;19.70;99.90;;;;;;4967832;28;21096;-79
2021/06/15 03:18:20;;;;;;;2.70;2.47;;;19.70;99.90;;;;;;4970128;28;20451;-83
2021/06/15 03:20:50;;;;;;;3.13;2.90;;;19.70;99.90;;;;;;4967101;28;20474;-81
2021/06/15 03:23:34;;;;;;;2.90;2.70;;;19.60;99.90;;;;;;4974524;28;20497;-79
2021/06/15 03:26:06;;;;;;;3.63;2.90;;;19.50;99.90;;;;;;4962305;28;20451;-80
2021/06/15 03:28:38;;;;;;;4.90;2.57;;;19.50;99.90;;;;;;4970159;28;20455;-83
2021/06/15 03:31:07;;;;;;;3.27;2.80;;;19.50;99.90;;;;;;4968963;28;20482;-82
2021/06/15 03:33:37;;;;;;;2.87;2.67;;;19.50;99.90;;;;;;4979885;28;20485;-82
2021/06/15 03:36:07;;;;;;;3.67;3.10;;;19.40;99.90;;;;;;4974977;28;20447;-82
2021/06/15 03:38:37;;;;;;;5.23;3.03;;;19.40;99.90;;;;;;4977250;28;20459;-79
2021/06/15 03:41:06;;;;;;;3.30;2.67;;;19.40;99.90;;;;;;4974201;28;20533;-82
2021/06/15 03:43:36;;;;;;;4.00;2.60;;;19.40;99.90;;;;;;4980341;28;20461;-80
2021/06/15 03:46:10;;;;;;;6.27;3.20;;;19.40;99.90;;;;;;4973815;28;21167;-81
2021/06/15 03:48:41;;;;;;;4.13;2.93;;;19.40;99.90;;;;;;4976596;28;20839;-82
2021/06/15 03:51:12;;;;;;;3.93;3.63;;;19.40;99.90;;;;;;4974176;28;20479;-83
2021/06/15 03:53:41;;;;;;;3.60;3.20;;;19.40;99.90;;;;;;4974969;28;20479;-81
2021/06/15 03:56:10;;;;;;;3.33;2.80;;;19.40;99.90;;;;;;4973423;28;20847;-80
2021/06/15 03:58:39;;;;;;;3.93;2.70;;;19.40;99.90;;;;;;4967813;28;20444;-83
2021/06/15 04:01:14;;;;;;;4.17;3.77;;;19.50;99.90;;;;;;4963271;28;20991;-78
2021/06/15 04:03:43;;;;;;;3.17;2.97;;;19.50;99.90;;;;;;4975040;28;20490;-79
2021/06/15 04:06:12;;;;;;;4.40;3.10;;;19.50;99.90;;;;;;4980083;28;20454;-81
2021/06/15 04:08:42;;;;;;;3.20;2.90;;;19.40;99.90;;;;;;4974452;28;21028;-83
2021/06/15 04:11:12;;;;;;;6.73;3.27;;;19.40;99.90;;;;;;4979643;28;20466;-81
2021/06/15 04:13:43;;;;;;;3.50;3.20;;;19.40;99.90;;;;;;4978804;28;20462;-80
2021/06/15 04:16:15;;;;;;;4.97;4.03;;;19.40;99.90;;;;;;4975479;28;20475;-81
2021/06/15 04:18:46;;;;;;;3.30;2.87;;;19.40;99.90;;;;;;4978912;28;20438;-79
2021/06/15 04:21:17;;;;;;;3.17;2.97;;;19.40;99.90;;;;;;4977410;28;20431;-79
2021/06/15 04:23:48;;;;;;;3.97;2.73;;;19.40;99.90;;;;;;4976764;28;20479;-81
2021/06/15 04:26:17;;;;;;;3.97;3.20;;;19.40;99.90;;;;;;4976111;28;20457;-80
2021/06/15 04:28:45;;;;;;;3.50;3.07;;;19.40;99.90;;;;;;4980366;28;20435;-85
2021/06/15 04:31:16;;;;;;;5.57;4.00;;;19.40;99.90;;;;;;4977174;28;20459;-82
2021/06/15 04:33:47;;;;;;;4.27;3.50;;;19.40;99.90;;;;;;4966508;28;21040;-81
2021/06/15 04:36:18;;;;;;;3.83;3.43;;;19.30;99.90;;;;;;4970853;28;20459;-83
2021/06/15 04:38:52;;;;;;;3.77;3.40;;;19.10;99.90;;;;;;4975045;28;20454;-82
2021/06/15 04:41:24;;;;;;;4.87;3.10;;;19.10;99.90;;;;;;4976644;28;20442;-81
2021/06/15 04:43:57;;;;;;;3.90;3.60;;;19.00;99.90;;;;;;4974608;28;20530;-81
2021/06/15 04:46:28;;;;;;;3.30;3.00;;;18.90;99.90;;;;;;4971251;28;20447;-81
2021/06/15 04:49:04;;;;;;;6.40;4.10;;;18.90;99.90;;;;;;4961698;28;20435;-79
2021/06/15 04:51:33;;;;;;;4.20;3.27;;;18.90;99.90;;;;;;4974669;28;20448;-81
2021/06/15 04:54:04;;;;;;;4.23;3.87;;;19.00;99.90;;;;;;4973397;28;20505;-79
2021/06/15 04:56:32;;;;;;;8.33;4.47;;;18.90;99.90;;;;;;4993923;28;20445;-81
2021/06/15 04:59:03;;;;;;;5.13;4.63;;;19.00;99.90;;;;;;4982501;28;20545;-82
2021/06/15 05:01:33;;;;;;;4.73;4.20;;;19.10;99.90;;;;;;4976046;28;20439;-80
2021/06/15 05:04:01;;;;;;;4.13;3.77;;;19.20;99.90;;;;;;4963991;28;20439;-82
2021/06/15 05:06:30;;;;;;;3.90;3.50;;;19.40;99.90;;;;;;4975049;28;21026;-78
2021/06/15 05:09:00;;;;;;;3.90;3.50;;;19.50;99.90;;;;;;4973324;28;20494;-81
2021/06/15 05:11:33;;;;;;;3.87;3.57;;;19.60;99.90;;;;;;4975216;28;20447;-77
2021/06/15 05:14:04;;;;;;;4.57;3.90;;;19.70;99.90;;;;;;4977918;28;21017;-79
2021/06/15 05:16:35;;;;;;;4.30;3.90;;;19.70;99.90;;;;;;4972454;28;20451;-78
2021/06/15 05:19:03;;;;;;;5.10;4.37;;;19.70;99.90;;;;;;4973948;28;20498;-76
2021/06/15 05:21:41;;;;;;;5.00;4.60;;;19.80;99.90;;;;;;4972462;28;20518;-79
2021/06/15 05:24:12;;;;;;;5.30;4.47;;;19.80;99.90;;;;;;4971168;28;20466;-77
2021/06/15 05:26:40;;;;;;;6.87;4.50;;;19.90;99.90;;;;;;4974062;28;21197;-75
2021/06/15 05:29:08;;;;;;;6.60;3.80;;;19.90;99.90;;;;;;4986223;28;20525;-74
2021/06/15 05:31:38;;;;;;;4.20;3.80;;;19.90;99.90;;;;;;4955760;28;20448;-77
2021/06/15 05:34:06;;;;;;;5.93;4.37;;;19.90;99.90;;;;;;4957433;28;20539;-75
2021/06/15 05:36:35;;;;;;;6.50;4.77;;;20.00;99.90;;;;;;4956184;28;20443;-76
2021/06/15 05:39:03;;;;;;;4.97;4.43;;;20.10;99.90;;;;;;4968588;28;20996;-76
2021/06/15 05:41:31;;;;;;;8.82;4.90;;;20.10;99.90;;;;;;4970065;28;20443;-76
2021/06/15 05:44:00;;;;;;;8.67;4.50;;;20.10;99.90;;;;;;4966680;28;20198;-77
2021/06/15 05:46:28;;;;;;;6.70;4.80;;;20.20;99.90;;;;;;4974006;28;21126;-77
2021/06/15 05:48:57;;;;;;;5.53;4.40;;;20.20;99.90;;;;;;4973399;28;20436;-76
2021/06/15 05:51:26;;;;;;;6.17;4.63;;;20.30;99.90;;;;;;4967972;28;20471;-77
2021/06/15 05:53:55;;;;;;;4.63;4.23;;;20.30;99.90;;;;;;4971320;28;20510;-76
2021/06/15 05:56:23;;;;;;;5.70;3.83;;;20.40;99.90;;;;;;4964536;28;20551;-81
2021/06/15 05:58:51;;;;;;;5.63;4.10;;;20.50;99.90;;;;;;4968773;28;20547;-77
2021/06/15 06:01:20;;;;;;;8.83;3.70;;;20.50;99.90;;;;;;4969842;28;20455;-78
2021/06/15 06:03:54;;;;;;;5.77;4.00;;;20.50;99.90;;;;;;4970996;28;20815;-79
2021/06/15 06:09:10;;;;;;;4.77;3.83;;;20.60;99.90;;;;;;4972309;28;20485;-80
2021/06/15 06:11:38;;;;;;;3.00;2.70;;;20.70;99.90;;;;;;4966497;28;20847;-76
2021/06/15 06:14:06;;;;;;;3.33;3.03;;;20.70;99.90;;;;;;4968898;28;20447;-79
2021/06/15 06:16:36;;;;;;;3.60;2.90;;;20.70;99.90;;;;;;4968564;28;20862;-77
2021/06/15 06:19:14;;;;;;;4.87;3.73;;;20.80;99.90;;;;;;4967247;28;20823;-78
2021/06/15 06:21:44;;;;;;;3.97;3.23;;;20.80;99.90;;;;;;4969486;28;20752;-76
2021/06/15 06:24:13;;;;;;;10.87;2.93;;;20.90;99.90;;;;;;4971979;28;20475;-74
2021/06/15 06:26:41;;;;;;;5.80;2.90;;;20.90;99.90;;;;;;4974141;28;20447;-77
2021/06/15 06:29:10;;;;;;;4.90;3.40;;;21.00;99.90;;;;;;4972296;28;20522;-78
2021/06/15 06:31:38;;;;;;;4.17;2.70;;;21.00;99.90;;;;;;4970473;28;20477;-76
2021/06/15 06:34:06;;;;;;;4.50;2.50;;;21.00;99.90;;;;;;4973045;28;20443;-76
2021/06/15 06:36:35;;;;;;;4.63;2.67;;;21.10;99.90;;;;;;4970414;28;20466;-74
2021/06/15 06:39:06;;;;;;;5.87;2.90;;;21.10;99.90;;;;;;4971653;28;20451;-77
2021/06/15 06:41:34;;;;;;;2.87;2.43;;;21.20;99.90;;;;;;4970966;28;20455;-77
2021/06/15 06:44:03;;;;;;;5.03;2.50;;;21.20;99.90;;;;;;4968421;28;20479;-77
2021/06/15 06:46:32;;;;;;;5.07;3.03;;;21.30;99.90;;;;;;4972182;28;20963;-80
2021/06/15 06:49:00;;;;;;;2.40;2.20;;;21.40;99.90;;;;;;4968087;28;20483;-77
2021/06/15 06:51:29;;;;;;;4.53;2.83;;;21.40;99.90;;;;;;4966398;28;20470;-76
2021/06/15 06:53:59;;;;;;;6.40;2.80;;;21.50;99.90;;;;;;4981767;28;20449;-73
2021/06/15 06:56:29;;;;;;;2.50;2.30;;;21.60;99.90;;;;;;4972941;28;20463;-75
2021/06/15 06:58:57;;;;;;;2.80;2.40;;;21.70;99.90;;;;;;4970519;28;20483;-74
2021/06/15 07:01:25;;;;;;;3.17;2.20;;;21.80;99.90;;;;;;4972402;28;20532;-76
2021/06/15 07:03:54;;;;;;;3.07;2.53;;;21.90;99.90;;;;;;4970480;28;20456;-77
2021/06/15 07:06:22;;;;;;;8.10;3.17;;;21.90;99.90;;;;;;4972361;28;20447;-78
2021/06/15 07:08:50;;;;;;;2.23;2.03;;;22.00;99.90;;;;;;4969939;28;20476;-81
2021/06/15 07:11:19;;;;;;;4.43;2.50;;;22.00;99.90;;;;;;4968570;28;20970;-79
2021/06/15 07:13:49;;;;;;;4.20;3.00;;;22.10;99.90;;;;;;4951705;28;20948;-79
2021/06/15 07:16:18;;;;;;;6.93;3.50;;;22.20;99.90;;;;;;4959132;28;20537;-78
2021/06/15 07:18:46;;;;;;;2.90;2.03;;;22.30;99.90;;;;;;4969058;28;20552;-79
2021/06/15 07:21:14;;;;;;;2.30;2.10;;;22.30;99.90;;;;;;4970904;28;20461;-84
2021/06/15 07:23:43;;;;;;;2.73;2.37;;;22.30;99.90;;;;;;4968091;28;20486;-81
2021/06/15 07:26:11;;;;;;;3.03;2.20;;;22.40;99.90;;;;;;4969661;28;20466;-80
2021/06/15 07:28:39;;;;;;;3.03;2.30;;;22.40;99.90;;;;;;4968213;28;20868;-78
2021/06/15 07:31:09;;;;;;;2.10;1.83;;;22.50;99.90;;;;;;4971341;28;20495;-76
2021/06/15 07:33:37;;;;;;;2.77;1.80;;;22.60;99.90;;;;;;4968736;28;20961;-78
2021/06/15 07:36:06;;;;;;;5.00;2.50;;;22.60;99.90;;;;;;4970754;28;20481;-78
2021/06/15 07:38:35;;;;;;;2.90;1.77;;;22.70;99.90;;;;;;4970691;28;20512;-78
2021/06/15 07:41:03;;;;;;;3.23;2.00;;;22.80;99.90;;;;;;4968408;28;20481;-82
2021/06/15 07:43:32;;;;;;;2.50;2.23;;;22.80;99.90;;;;;;4968818;28;20469;-78
2021/06/15 07:46:00;;;;;;;7.67;2.20;;;22.80;99.90;;;;;;4970274;28;20510;-80
2021/06/15 07:48:30;;;;;;;3.80;2.13;;;22.90;99.90;;;;;;4983545;28;20459;-81
2021/06/15 07:50:58;;;;;;;3.03;1.73;;;23.00;99.90;;;;;;4962795;28;20526;-80
2021/06/15 07:53:26;;;;;;;7.13;2.27;;;23.00;99.90;;;;;;4969273;28;20816;-78
2021/06/15 07:55:55;;;;;;;4.10;1.77;;;23.10;99.90;;;;;;4969942;28;20505;-78
2021/06/15 07:58:23;;;;;;;2.90;1.80;;;23.10;99.90;;;;;;4968092;28;20467;-79
2021/06/15 08:00:52;;;;;;;2.77;2.17;;;23.10;99.90;;;;;;4971015;28;20487;-78
2021/06/15 08:03:20;;;;;;;3.00;2.13;;;23.10;99.90;;;;;;4970790;28;20505;-77
2021/06/15 08:05:50;;;;;;;2.07;1.87;;;23.20;99.90;;;;;;4969042;28;20444;-79
2021/06/15 08:08:18;;;;;;;2.33;2.03;;;23.30;99.90;;;;;;4968979;28;20558;-79
2021/06/15 08:10:47;;;;;;;2.37;2.03;;;23.30;99.90;;;;;;4961940;28;20592;-79
2021/06/15 08:13:15;;;;;;;2.17;1.80;;;23.40;99.90;;;;;;4954488;28;20805;-78
2021/06/15 08:15:45;;;;;;;1.90;1.80;;;23.40;99.90;;;;;;4969392;28;20581;-79
2021/06/15 08:18:14;;;;;;;1.80;1.70;;;23.40;99.90;;;;;;4950455;28;20456;-82
2021/06/15 08:20:43;;;;;;;2.23;1.97;;;23.40;99.90;;;;;;4969108;28;20467;-82
2021/06/15 08:23:13;;;;;;;3.97;1.70;;;23.50;99.90;;;;;;4965352;28;20455;-79
2021/06/15 08:25:43;;;;;;;7.00;2.00;;;23.50;99.90;;;;;;4961706;28;20454;-77
2021/06/15 08:28:12;;;;;;;3.37;1.93;;;23.50;99.90;;;;;;4956147;28;20522;-79
2021/06/15 08:30:41;;;;;;;2.17;1.53;;;23.60;99.90;;;;;;4971849;28;21100;-80
2021/06/15 08:33:10;;;;;;;4.50;1.60;;;23.70;99.90;;;;;;4967934;28;20451;-79
2021/06/15 08:35:39;;;;;;;2.17;1.70;;;23.70;99.90;;;;;;4976226;28;20460;-79
2021/06/15 08:38:07;;;;;;;3.63;1.87;;;23.70;99.90;;;;;;4958860;28;20825;-80
2021/06/15 08:40:36;;;;;;;2.53;1.80;;;23.70;99.90;;;;;;4967370;28;20471;-80
2021/06/15 08:43:05;;;;;;;2.53;2.00;;;23.70;99.90;;;;;;4959387;28;20987;-81
2021/06/15 08:45:33;;;;;;;2.93;2.47;;;23.70;99.90;;;;;;4961615;28;20855;-78
2021/06/15 08:48:01;;;;;;;2.27;2.07;;;23.70;99.90;;;;;;4968470;28;20469;-79
2021/06/15 08:50:30;;;;;;;2.13;1.57;;;23.80;99.90;;;;;;4969137;28;20473;-79
2021/06/15 08:52:58;;;;;;;6.57;2.17;;;23.80;99.90;;;;;;4967241;28;20466;-79
2021/06/15 08:55:30;;;;;;;2.60;1.60;;;23.80;99.90;;;;;;4969556;28;20456;-77
2021/06/15 08:58:21;;;;;;;2.40;1.87;;;23.90;99.90;;;;;;4969160;28;20486;-79
2021/06/15 09:00:49;;;;;;;2.37;2.20;;;23.90;99.90;;;;;;4972775;28;20518;-78
2021/06/15 09:03:17;;;;;;;2.00;1.90;;;24.00;99.90;;;;;;4974339;28;20443;-76
2021/06/15 09:05:46;;;;;;;2.13;1.93;;;24.10;99.90;;;;;;4971228;28;21010;-80
2021/06/15 09:08:15;;;;;;;3.30;2.37;;;24.10;99.90;;;;;;4972167;28;20463;-79
2021/06/15 09:10:44;;;;;;;1.90;1.80;;;24.10;99.90;;;;;;4977296;28;20478;-78
2021/06/15 09:13:34;;;;;;;1.80;1.70;;;24.20;99.90;;;;;;4978028;28;20451;-80
2021/06/15 09:16:02;;;;;;;2.40;2.10;;;24.20;99.90;;;;;;4970798;28;20502;-78
2021/06/15 09:18:31;;;;;;;2.90;2.00;;;24.30;99.90;;;;;;4974029;28;20459;-80
2021/06/15 09:21:01;;;;;;;1.80;1.70;;;24.30;99.90;;;;;;4971879;28;21002;-82
2021/06/15 09:23:33;;;;;;;2.60;2.03;;;24.30;99.90;;;;;;4968633;28;20459;-78
2021/06/15 09:26:02;;;;;;;1.97;1.60;;;24.30;99.90;;;;;;4971933;28;20966;-78
2021/06/15 09:28:30;;;;;;;3.60;1.77;;;24.30;99.90;;;;;;4962868;28;20459;-82
2021/06/15 09:31:03;;;;;;;2.20;2.00;;;24.30;99.90;;;;;;4977502;28;20486;-78
2021/06/15 09:33:40;;;;;;;2.50;1.77;;;24.40;99.90;;;;;;4973783;28;20510;-79
2021/06/15 09:36:26;;;;;;;1.77;1.67;;;24.40;99.90;;;;;;4973210;28;20454;-81
2021/06/15 09:38:55;;;;;;;2.63;1.80;;;24.50;99.90;;;;;;4970431;28;20461;-79
2021/06/15 09:41:37;;;;;;;2.47;1.83;;;24.50;99.90;;;;;;4975444;28;20458;-79
2021/06/15 09:44:17;;;;;;;3.27;2.90;;;24.50;99.90;;;;;;4970104;28;20451;-78
2021/06/15 09:46:48;;;;;;;6.13;2.20;;;24.60;99.90;;;;;;4985719;28;20549;-82
2021/06/15 09:49:31;;;;;;;2.40;2.20;;;24.60;99.90;;;;;;4979484;28;20471;-80
2021/06/15 09:52:17;;;;;;;2.97;2.07;;;24.70;99.90;;;;;;4970393;28;20882;-81
2021/06/15 09:54:48;;;;;;;2.00;1.90;;;24.70;99.90;;;;;;4970484;28;20506;-79
2021/06/15 09:57:22;;;;;;;3.60;2.37;;;24.80;99.90;;;;;;4970240;28;20482;-79
2021/06/15 10:00:12;;;;;;;1.97;1.87;;;24.80;99.90;;;;;;4971436;28;20625;-79
2021/06/15 10:02:54;;;;;;;3.40;2.20;;;24.80;99.90;;;;;;4969039;28;20872;-81
2021/06/15 10:05:26;;;;;;;6.80;3.07;;;24.80;99.90;;;;;;4969183;28;20984;-79
2021/06/15 10:07:57;;;;;;;2.50;2.30;;;24.90;99.90;;;;;;4969269;28;20458;-80
2021/06/15 10:10:30;;;;;;;3.33;2.13;;;24.90;99.90;;;;;;4969384;28;20498;-80
2021/06/15 10:12:59;;;;;;;2.63;2.20;;;25.00;99.90;;;;;;4970054;28;20516;-80
2021/06/15 10:15:28;;;;;;;4.30;1.97;;;25.00;99.90;;;;;;4965778;28;20872;-80
2021/06/15 10:17:59;;;;;;;3.83;2.43;;;25.00;99.90;;;;;;4970410;28;20479;-80
2021/06/15 10:20:29;;;;;;;2.20;2.07;;;25.10;99.90;;;;;;4971145;28;20475;-78
2021/06/15 10:22:59;;;;;;;2.33;2.13;;;25.00;99.90;;;;;;4967743;28;20534;-79
2021/06/15 10:25:30;;;;;;;2.67;2.43;;;25.10;99.90;;;;;;4970314;28;20466;-78
2021/06/15 10:28:00;;;;;;;2.13;2.00;;;25.10;99.90;;;;;;4950776;28;20440;-80
2021/06/15 10:30:32;;;;;;;5.40;2.10;;;25.10;99.90;;;;;;4966506;28;20486;-81
2021/06/15 10:33:11;;;;;;;3.30;2.23;;;25.20;99.90;;;;;;4969246;28;20463;-78
2021/06/15 10:35:44;;;;;;;2.73;2.20;;;25.10;99.90;;;;;;4971421;28;20462;-78
2021/06/15 10:38:17;;;;;;;3.43;2.27;;;25.10;99.90;;;;;;4952363;28;20468;-80
2021/06/15 10:40:51;;;;;;;2.87;1.90;;;25.20;99.90;;;;;;4952379;29;21017;-79
2021/06/15 10:43:28;;;;;;;2.57;2.20;;;25.20;99.90;;;;;;4971840;28;20451;-79
2021/06/15 10:46:06;;;;;;;3.20;2.30;;;25.20;99.90;;;;;;4973166;28;20466;-80
2021/06/15 10:48:46;;;;;;;2.80;1.93;;;25.20;99.90;;;;;;4969723;28;20451;-79
2021/06/15 10:51:26;;;;;;;3.17;2.20;;;25.20;99.90;;;;;;4971709;28;20465;-78
2021/06/15 10:54:01;;;;;;;2.40;2.20;;;25.30;99.90;;;;;;4976420;28;20443;-78
2021/06/15 10:56:33;;;;;;;2.10;1.70;;;25.30;99.90;;;;;;4971716;28;20523;-80
2021/06/15 10:59:06;;;;;;;2.43;2.03;;;25.40;99.90;;;;;;4966869;28;20475;-81
2021/06/15 11:01:37;;;;;;;3.30;1.80;;;25.30;99.90;;;;;;4970577;28;20479;-83
2021/06/15 11:04:09;;;;;;;2.60;2.10;;;25.30;99.90;;;;;;4974777;28;20459;-79
2021/06/15 11:06:43;;;;;;;4.33;2.07;;;25.40;99.90;;;;;;4966311;28;20459;-80
2021/06/15 11:09:33;;;;;;;2.40;2.03;;;25.40;99.90;;;;;;4954745;28;20471;-81
2021/06/15 11:12:22;;;;;;;2.73;2.10;;;25.40;99.90;;;;;;4967500;28;20561;-81
2021/06/15 11:15:13;;;;;;;3.27;1.97;;;25.40;99.90;;;;;;4971421;28;20812;-79
2021/06/15 11:17:49;;;;;;;3.70;2.10;;;25.40;99.90;;;;;;4971672;28;20533;-81
2021/06/15 11:20:30;;;;;;;2.20;2.00;;;25.40;99.90;;;;;;4971401;28;20518;-83
2021/06/15 11:23:23;;;;;;;3.03;2.50;;;25.40;99.90;;;;;;4967741;28;20455;-79
2021/06/15 11:25:54;;;;;;;2.03;1.87;;;25.50;99.90;;;;;;4968924;28;20455;-81
2021/06/15 11:28:49;;;;;;;3.83;2.33;;;25.50;99.90;;;;;;4954534;28;20432;-80
2021/06/15 11:31:34;;;;;;;2.70;2.30;;;25.60;99.90;;;;;;4965282;28;20816;-80
2021/06/15 11:34:17;;;;;;;2.97;2.40;;;25.60;99.90;;;;;;4966095;28;20809;-81
2021/06/15 11:36:56;;;;;;;2.30;2.10;;;25.60;99.90;;;;;;4966853;28;20980;-83
2021/06/15 11:39:42;;;;;;;2.33;1.80;;;25.60;99.90;;;;;;4981458;28;20522;-81
2021/06/15 11:42:30;;;;;;;2.20;2.00;;;25.70;99.90;;;;;;4967932;28;20486;-81
2021/06/15 11:45:08;;;;;;;2.03;1.93;;;25.60;99.90;;;;;;4969116;28;20521;-80
2021/06/15 11:47:45;;;;;;;1.80;1.70;;;25.70;99.90;;;;;;4972556;28;20825;-79
2021/06/15 11:50:23;;;;;;;2.03;1.83;;;25.70;99.90;;;;;;4972161;28;20529;-79
2021/06/15 11:53:04;;;;;;;2.40;1.97;;;25.70;99.90;;;;;;4971061;28;20450;-81
2021/06/15 11:55:35;;;;;;;1.57;1.47;;;25.70;99.90;;;;;;4963524;28;20463;-81
2021/06/15 11:58:06;;;;;;;2.60;2.20;;;25.70;99.90;;;;;;4964261;28;21085;-78
2021/06/15 12:00:36;;;;;;;1.90;1.80;;;25.60;99.90;;;;;;4972112;28;20471;-80
2021/06/15 12:03:13;;;;;;;1.83;1.73;;;25.60;99.90;;;;;;4971448;28;20509;-81
2021/06/15 12:05:43;;;;;;;4.93;2.00;;;25.60;99.90;;;;;;4966798;28;20480;-76
2021/06/15 12:08:13;;;;;;;2.80;1.80;;;25.70;99.90;;;;;;4968395;28;20463;-79
2021/06/15 12:10:43;;;;;;;2.90;2.10;;;25.70;99.90;;;;;;4966906;28;20475;-78
2021/06/15 12:13:14;;;;;;;2.10;2.00;;;25.90;99.90;;;;;;4969271;28;20459;-78
2021/06/15 12:15:54;;;;;;;3.10;1.50;;;26.00;99.90;;;;;;4977505;28;20457;-76
2021/06/15 12:18:34;;;;;;;1.73;1.63;;;26.00;99.90;;;;;;4956676;28;21212;-77
2021/06/15 12:21:07;;;;;;;1.80;1.70;;;26.10;99.90;;;;;;4969742;28;20978;-79
2021/06/15 12:23:43;;;;;;;2.33;2.00;;;26.20;99.90;;;;;;4969528;28;20533;-79
2021/06/15 12:26:23;;;;;;;8.73;2.50;;;26.30;99.90;;;;;;4964322;28;20514;-81
2021/06/15 12:28:54;;;;;;;7.23;2.00;;;26.20;99.90;;;;;;4966634;28;20698;-80
2021/06/15 12:31:25;;;;;;;5.43;2.43;;;26.20;99.90;;;;;;4963123;28;20483;-79
2021/06/15 12:33:56;;;;;;;3.53;2.23;;;26.10;99.90;;;;;;4970942;28;20463;-79
2021/06/15 12:36:27;;;;;;;2.60;2.10;;;26.10;99.90;;;;;;4991897;28;20442;-81
2021/06/15 12:39:09;;;;;;;3.23;1.97;;;26.10;99.90;;;;;;4976957;28;20474;-79
2021/06/15 12:41:39;;;;;;;2.37;1.80;;;26.00;99.90;;;;;;4969871;28;20455;-81
2021/06/15 12:44:08;;;;;;;2.73;1.87;;;26.10;99.90;;;;;;4970089;28;20458;-78
2021/06/15 12:46:38;;;;;;;2.80;1.73;;;26.10;99.90;;;;;;4972980;28;20442;-79
2021/06/15 12:49:15;;;;;;;2.77;2.20;;;26.10;99.90;;;;;;4965153;28;20989;-76
2021/06/15 12:51:45;;;;;;;2.90;1.80;;;26.10;99.90;;;;;;4983713;28;21233;-78
2021/06/15 12:54:36;;;;;;;3.80;2.00;;;26.10;99.90;;;;;;4980932;28;20879;-80
2021/06/15 12:57:06;;;;;;;2.50;2.03;;;26.20;99.90;;;;;;4970626;28;20455;-79
2021/06/15 12:59:36;;;;;;;6.20;1.87;;;26.10;99.90;;;;;;4967289;28;20777;-78
2021/06/15 13:02:12;;;;;;;3.83;1.93;;;26.10;99.90;;;;;;4969482;28;20451;-78
2021/06/15 13:04:47;;;;;;;2.43;2.10;;;26.10;99.90;;;;;;4971164;28;20462;-78
2021/06/15 13:07:17;;;;;;;1.57;1.47;;;26.10;99.90;;;;;;4971716;28;20513;-78
2021/06/15 13:09:47;;;;;;;2.80;1.70;;;26.10;99.90;;;;;;4968439;28;20529;-78
2021/06/15 13:12:18;;;;;;;1.87;1.77;;;26.20;99.90;;;;;;4973613;28;20431;-77